Tiempo atmosférico en la estación meteorológica de Tamarite De Litera, La Melusa, Huesca (218 m.)



Fecha
DESCASC
Temp. máxima en grados centígrados (hora)
DESCASC
Temp. mínima en grados centígrados (hora)
DESCASC
Temp. media en grados centígrados
DESCASC
Racha de viento máxima en m/sg (hora)
DESCASC
Velocidad máxima media en intervalos de 10 minutos(hora)
DESCASC
Precipitaciones diarias en mm
DESCASC
Precipitaciones de 00:00 a 06:00 en mm
DESCASC
Precipitaciones de 06:00 a 12:00 en mm
DESCASC
Precipitaciones de 12:00 a 18:00 en mm
DESCASC
Precipitaciones de 18:00 a 24:00 en mm
DESCASC

Gráficas

Temp. máximas Temp. mínimas Temp. medias Precipitaciones Rachas de viento máximas Velocidades máximas media en intervalos de 10 minutos

Datos horarios

Fecha y hora oficial Temperatura (ºC) Velocidad del viento (km/h) Dirección del viento Racha (km/h) Dirección de racha Precipitación (mm) Presión (hPa) Tendencia (hPa) Humedad (%)
2020-07-08 23:00:00 24.2 14 Nordeste 22 Nordeste 0 -- -- 78
2020-07-08 22:00:00 24.5 10 Este 25 Sudeste 0 -- -- 77
2020-07-08 21:00:00 26.5 12 Sudeste 24 Sudeste 0 -- -- 70
2020-07-08 20:00:00 29.2 11 Sur 23 Sur 0 -- -- 62
2020-07-08 19:00:00 31.3 12 Sur 24 Sur 0 -- -- 56
2020-07-08 18:00:00 32.7 9 Sudeste 15 Este 0 -- -- 33
2020-07-08 17:00:00 32.4 10 Sur 22 Sur 0 -- -- 34
2020-07-08 16:00:00 31.9 9 Sudeste 19 Este 0 -- -- 42
2020-07-08 15:00:00 29.7 12 Nordeste 19 Nordeste 0 -- -- 48
2020-07-08 14:00:00 29.4 3 Sur 17 Sur 0 -- -- 48
2020-07-08 13:00:00 29.5 5 Sur 17 Este 0 -- -- 48
2020-07-08 12:00:00 27.5 5 Nordeste 15 Sur 0 -- -- 58
2020-07-08 11:00:00 26 7 Sudoeste 13 Sudeste 0 -- -- 64
2020-07-08 10:00:00 24.6 4 Sur 7 Sudeste 0 -- -- 68
2020-07-08 09:00:00 22 0 Calma 6 Sudoeste 0 -- -- 75
2020-07-08 08:00:00 18 3 Oeste 6 Oeste 0 -- -- 86
2020-07-08 07:00:00 15.4 4 Noroeste 6 Noroeste 0 -- -- 92
2020-07-08 06:00:00 15.5 3 Noroeste 5 Norte 0 -- -- 90
2020-07-08 05:00:00 17.4 5 Nordeste 8 Nordeste 0 -- -- 85
2020-07-08 04:00:00 18.3 5 Nordeste 12 Este 0 -- -- 85
2020-07-08 03:00:00 18.8 7 Este 14 Este 0 -- -- 82
2020-07-08 02:00:00 19 9 Este 16 Nordeste 0 -- -- 80
2020-07-08 01:00:00 19.4 10 Nordeste 15 Nordeste 0 -- -- 79
2020-07-08 00:00:00 19 8 Nordeste 11 Sudeste 0 -- -- 84
2020-07-07 23:00:00 20.9 6 Este 17 Sur 0 -- -- 76
2020-07-07 22:00:00 23 5 Nordeste 8 Nordeste 0 -- -- 71
2020-07-07 21:00:00 27.6 4 Este 8 Este 0 -- -- 54
2020-07-07 20:00:00 29.3 3 Nordeste 8 Nordeste 0 -- -- 47
2020-07-07 19:00:00 29.5 5 Norte 11 Nordeste 0 -- -- 49
2020-07-07 18:00:00 29.6 3 Este 14 Sudeste 0 -- -- 45
2020-07-07 17:00:00 29.3 5 Sudoeste 12 Sudoeste 0 -- -- 42
2020-07-07 16:00:00 27.8 4 Sudeste 15 Sur 0 -- -- 45
2020-07-07 15:00:00 26.6 6 Sudeste 13 Sur 0 -- -- 47
2020-07-07 14:00:00 25.2 5 Sudoeste 15 Sur 0 -- -- 49
2020-07-07 13:00:00 23.3 5 Sur 16 Sudoeste 0 -- -- 53
2020-07-07 12:00:00 21.6 5 Sudeste 12 Sudoeste 0 -- -- 56
2020-07-07 11:00:00 19.7 6 Sudoeste 14 Sudoeste 0 -- -- 61
2020-07-07 10:00:00 18.3 5 Sudoeste 10 Sudoeste 0 -- -- 65
2020-07-07 09:00:00 16.7 4 Sudoeste 8 Sudoeste 0 -- -- 74
2020-07-07 08:00:00 14.9 2 Sur 7 Sur 0 -- -- 79
2020-07-07 07:00:00 13 5 Este 7 Este 0 -- -- 88
2020-07-07 06:00:00 13.4 4 Sur 9 Sur 0 -- -- 82
2020-07-07 05:00:00 14.4 6 Sur 9 Sur 0 -- -- 79
2020-07-07 04:00:00 15.5 5 Sudoeste 10 Sudoeste 0 -- -- 75
2020-07-07 03:00:00 16.5 5 Sudoeste 12 Sudoeste 0 -- -- 73
2020-07-07 02:00:00 17.5 6 Sudoeste 16 Sudoeste 0 -- -- 70
2020-07-07 01:00:00 18.9 6 Sudoeste 22 Sudoeste 0 -- -- 64
2020-07-07 00:00:00 20.4 14 Sudoeste 21 Sudoeste 0 -- -- 65
2020-07-06 23:00:00 22.6 7 Sudoeste 25 Oeste 0 -- -- 60
2020-07-06 22:00:00 25 10 Sudoeste 26 Oeste 0 -- -- 54
2020-07-06 21:00:00 28 12 Oeste 28 Sudoeste 0 -- -- 47
2020-07-06 20:00:00 31 14 Oeste 29 Sudoeste 0 -- -- 41
2020-07-06 19:00:00 32.7 16 Oeste 31 Sudoeste 0 -- -- 37
2020-07-06 18:00:00 33.6 17 Oeste 30 Sudoeste 0 -- -- 37
2020-07-06 17:00:00 33.8 12 Oeste 29 Sudoeste 0 -- -- 37
2020-07-06 16:00:00 32.9 13 Oeste 26 Sudoeste 0 -- -- 41
2020-07-06 15:00:00 31.3 7 Oeste 24 Sudoeste 0 -- -- 48
2020-07-06 14:00:00 29.5 8 Oeste 20 Oeste 0 -- -- 53
2020-07-06 13:00:00 28.2 8 Sudoeste 19 Sudoeste 0 -- -- 57
2020-07-06 12:00:00 26.7 6 Sudoeste 18 Sur 0 -- -- 62
2020-07-06 11:00:00 25 4 Sudoeste 12 Sudoeste 0 -- -- 65
2020-07-06 10:00:00 23.2 6 Sur 13 Sudeste 0 -- -- 72
2020-07-06 09:00:00 21.3 4 Sur 12 Sudeste 0 -- -- 76
2020-07-06 08:00:00 19.5 7 Sudeste 11 Sudeste 0 -- -- 85
2020-07-06 07:00:00 17.6 8 Este 10 Este 0 -- -- 93
2020-07-06 06:00:00 17.3 3 Este 4 Este 0 -- -- 91
2020-07-06 05:00:00 18 0 Calma 4 Sudoeste 0 -- -- 90
2020-07-06 04:00:00 18.6 4 Noroeste 6 Nordeste 0 -- -- 88
2020-07-06 03:00:00 18.9 4 Nordeste 6 Este 0 -- -- 87
2020-07-06 02:00:00 19.8 3 Nordeste 7 Este 0 -- -- 84
2020-07-06 01:00:00 20.2 4 Nordeste 8 Nordeste 0 -- -- 83
2020-07-06 00:00:00 20.9 4 Norte 6 Norte 0 -- -- 80
2020-07-05 23:00:00 22.4 5 Norte 6 Norte 0 -- -- 75
2020-07-05 22:00:00 25.6 3 Este 5 Sudeste 0 -- -- 64
2020-07-05 21:00:00 30.2 5 Sudeste 8 Sudeste 0 -- -- 47
2020-07-05 20:00:00 31.8 7 Sudeste 9 Este 0 -- -- 36
2020-07-05 19:00:00 33.2 4 Sur 10 Sudoeste 0 -- -- 34
2020-07-05 18:00:00 32.7 4 Sudeste 13 Sur 0 -- -- 32
2020-07-05 17:00:00 32.1 4 Sudoeste 12 Sur 0 -- -- 30
2020-07-05 16:00:00 31 5 Sur 14 Sur 0 -- -- 34
2020-07-05 15:00:00 29.8 5 Oeste 14 Sur 0 -- -- 40
2020-07-05 14:00:00 28.3 6 Sur 13 Sur 0 -- -- 38
2020-07-05 13:00:00 26.6 7 Sudoeste 14 Sur 0 -- -- 47
2020-07-05 12:00:00 25.2 7 Sur 14 Sur 0 -- -- 49
2020-07-05 11:00:00 23.8 6 Sur 12 Sudeste 0 -- -- 53
2020-07-05 10:00:00 21.8 7 Sudeste 13 Sudeste 0 -- -- 59
2020-07-05 09:00:00 20.4 7 Sudeste 13 Sudeste 0 -- -- 72
2020-07-05 08:00:00 18.2 0 Calma 4 Nordeste 0 -- -- 86
2020-07-05 07:00:00 14.6 0 Calma 6 Norte 0 -- -- 93
2020-07-05 06:00:00 14.5 0 Calma 4 Noroeste 0 -- -- 91
2020-07-05 05:00:00 15.3 0 Calma 3 Sur 0 -- -- 88
2020-07-05 04:00:00 16.2 0 Calma 10 Nordeste 0 -- -- 83
2020-07-05 03:00:00 17.3 5 Nordeste 12 Nordeste 0 -- -- 79
2020-07-05 02:00:00 17.7 9 Nordeste 15 Nordeste 0 -- -- 79
2020-07-05 01:00:00 17.8 7 Nordeste 9 Nordeste 0 -- -- 81
2020-07-05 00:00:00 18.8 4 Este 10 Norte 0 -- -- 75
2020-07-04 23:00:00 19.8 9 Norte 11 Norte 0 -- -- 73
2020-07-04 22:00:00 22.3 5 Este 8 Sudeste 0 -- -- 68
2020-07-04 21:00:00 26.5 6 Sudeste 12 Sudeste 0 -- -- 51
2020-07-04 20:00:00 29 6 Este 10 Este 0 -- -- 40
2020-07-04 19:00:00 30.3 4 Oeste 14 Oeste 0 -- -- 30
2020-07-04 18:00:00 29.5 4 Oeste 15 Oeste 0 -- -- 32
2020-07-04 17:00:00 29 7 Oeste 20 Sudoeste 0 -- -- 33
2020-07-04 16:00:00 27.4 9 Oeste 19 Sudoeste 0 -- -- 39
2020-07-04 15:00:00 26.2 5 Noroeste 24 Sudoeste 0 -- -- 44
2020-07-04 14:00:00 24.2 5 Sudeste 15 Sur 0 -- -- 51
2020-07-04 13:00:00 22.6 9 Sur 15 Sur 0 -- -- 54
2020-07-04 12:00:00 21.2 4 Sudeste 14 Sudeste 0 -- -- 61
2020-07-04 11:00:00 19.2 5 Sur 12 Sur 0 -- -- 64
2020-07-04 10:00:00 17.1 6 Sudoeste 15 Sudoeste 0 -- -- 67
2020-07-04 09:00:00 16.2 3 Sur 8 Sudeste 0 -- -- 76
2020-07-04 08:00:00 14.3 5 Este 7 Nordeste 0 -- -- 86
2020-07-04 07:00:00 11.7 0 Calma 6 Noroeste 0 -- -- 92
2020-07-04 06:00:00 11.8 4 Noroeste 9 Noroeste 0 -- -- 90
2020-07-04 05:00:00 11.9 6 Norte 9 Norte 0 -- -- 91
2020-07-04 04:00:00 12.9 0 Calma 5 Norte 0 -- -- 88
2020-07-04 03:00:00 14.2 0 Calma 8 Sudoeste 0 -- -- 82
2020-07-04 02:00:00 16.1 5 Oeste 12 Sudoeste 0 -- -- 73
2020-07-04 01:00:00 17.5 9 Sudoeste 16 Oeste 0 -- -- 66
2020-07-04 00:00:00 18.2 4 Sur 13 Sudoeste 0 -- -- 61
2020-07-03 23:00:00 21 3 Sudoeste 18 Sudoeste 0 -- -- 51
2020-07-03 22:00:00 22.9 7 Sudoeste 15 Sudoeste 0 -- -- 49
2020-07-03 21:00:00 26.2 7 Sudoeste 19 Oeste 0 -- -- 41
2020-07-03 20:00:00 28.2 13 Oeste 24 Oeste 0 -- -- 34
2020-07-03 19:00:00 28.8 13 Oeste 23 Oeste 0 -- -- 32
2020-07-03 18:00:00 28.8 12 Oeste 22 Sudoeste 0 -- -- 34
2020-07-03 17:00:00 28.3 13 Oeste 27 Sudoeste 0 -- -- 36
2020-07-03 16:00:00 27.4 12 Oeste 28 Sudoeste 0 -- -- 35
2020-07-03 15:00:00 26.6 14 Oeste 47 Sudoeste 0 -- -- 39
2020-07-03 14:00:00 25.6 13 Oeste 28 Sudoeste 0 -- -- 42
2020-07-03 13:00:00 23.7 7 Oeste 23 Sudoeste 0 -- -- 56
2020-07-03 12:00:00 22.3 9 Oeste 18 Sudoeste 0 -- -- 62
2020-07-03 11:00:00 20.7 6 Sudoeste 17 Sur 0 -- -- 67
2020-07-03 10:00:00 19.5 8 Sur 16 Sudoeste 0 -- -- 69
2020-07-03 09:00:00 18.1 8 Sudoeste 15 Sudoeste 0 -- -- 75
2020-07-03 08:00:00 16.7 7 Sudoeste 12 Sudoeste 0 -- -- 82
2020-07-03 07:00:00 16.2 4 Sudoeste 14 Sudoeste 0 -- -- 86
2020-07-03 06:00:00 16.3 6 Sudoeste 13 Sudoeste 0 -- -- 88
2020-07-03 05:00:00 16.4 6 Sur 11 Sudoeste 1 -- -- 90
2020-07-03 04:00:00 17.4 8 Sudoeste 19 Sudoeste 0.4 -- -- 84
2020-07-03 03:00:00 17.8 6 Sudoeste 18 Sudoeste 0.2 -- -- 82
2020-07-03 02:00:00 18.5 6 Sur 17 Sudoeste 2.6 -- -- 83
2020-07-03 01:00:00 21.6 7 Sur 19 Sur 0 -- -- 61
2020-07-03 00:00:00 22.4 9 Oeste 26 Oeste 0 -- -- 61
2020-07-02 23:00:00 23.9 12 Oeste 27 Oeste 0 -- -- 56
2020-07-02 22:00:00 25.6 13 Oeste 27 Sudoeste 0 -- -- 52
2020-07-02 21:00:00 28.9 5 Sur 15 Sur 0 -- -- 55
2020-07-02 20:00:00 31.3 7 Sur 16 Sur 0 -- -- 45
2020-07-02 19:00:00 31.5 6 Sudeste 12 Sudeste 0 -- -- 46
2020-07-02 18:00:00 31.8 5 Noroeste 12 Noroeste 0 -- -- 43
2020-07-02 17:00:00 31.2 9 Sudoeste 16 Sudoeste 0 -- -- 46
2020-07-02 16:00:00 30.8 5 Noroeste 16 Noroeste 0 -- -- 49
2020-07-02 15:00:00 29.9 9 Sur 16 Sudoeste 0 -- -- 49
2020-07-02 14:00:00 29 8 Sur 16 Sudoeste 0 -- -- 52
2020-07-02 13:00:00 27.7 7 Sudoeste 22 Sudoeste 0 -- -- 59
2020-07-02 12:00:00 27 6 Sudoeste 14 Oeste 0 -- -- 59
2020-07-02 11:00:00 25 3 Este 13 Sudeste 0 -- -- 66
2020-07-02 10:00:00 23.1 6 Sur 12 Sudeste 0 -- -- 72
2020-07-02 09:00:00 22.1 3 Sur 14 Sudoeste 0 -- -- 73
2020-07-02 08:00:00 20.8 8 Sur 14 Sudoeste 0 -- -- 80
2020-07-02 07:00:00 20.6 4 Sudeste 15 Sudeste 0 -- -- 82
2020-07-02 06:00:00 21 3 Este 11 Este 0 -- -- 85
2020-07-02 05:00:00 21.9 8 Nordeste 14 Este 0 -- -- 80
2020-07-02 04:00:00 22 8 Sudeste 20 Sudeste 0 -- -- 74
2020-07-02 03:00:00 22.5 11 Sudeste 18 Este 0 -- -- 79
2020-07-02 02:00:00 22.7 4 Sudeste 15 Este 0 -- -- 76
2020-07-02 01:00:00 23.1 4 Norte 9 Noroeste 0 -- -- 75
2020-07-02 00:00:00 24 4 Sur 13 Sudoeste 0 -- -- 68
2020-07-01 23:00:00 24.4 6 Noroeste 12 Noroeste 0 -- -- 58
2020-07-01 22:00:00 27.8 3 Oeste 35 Oeste 0 -- -- 46
2020-07-01 21:00:00 30.5 5 Noroeste 9 Sur 0 -- -- 55
2020-07-01 20:00:00 33.3 5 Sur 11 Sur 0 -- -- 42
2020-07-01 19:00:00 34.7 8 Sur 13 Sudoeste 0 -- -- 35
2020-07-01 18:00:00 34.9 6 Sur 10 Sudoeste 0 -- -- 35
2020-07-01 17:00:00 34.3 5 Sudoeste 15 Sur 0 -- -- 39
2020-07-01 16:00:00 33.2 5 Sudeste 12 Este 0 -- -- 39
2020-07-01 15:00:00 32.1 6 Sur 19 Sur 0 -- -- 47
2020-07-01 14:00:00 31.1 9 Sur 22 Este 0 -- -- 45
2020-07-01 13:00:00 30.1 9 Sur 15 Sudeste 0 -- -- 45
2020-07-01 12:00:00 28.9 5 Este 13 Sudeste 0 -- -- 53
2020-07-01 11:00:00 27.5 5 Sudeste 12 Este 0 -- -- 51
2020-07-01 10:00:00 25 3 Sudoeste 8 Sudoeste 0 -- -- 66
2020-07-01 09:00:00 23.2 0 Calma 6 Norte 0 -- -- 78
2020-07-01 08:00:00 20.6 2 Norte 5 Oeste 0 -- -- 94
2020-07-01 07:00:00 18.4 3 Sudeste 11 Oeste 0 -- -- 94
2020-07-01 06:00:00 18.3 3 Norte 7 Oeste 0 -- -- 93
2020-07-01 05:00:00 19.4 0 Calma 4 Nordeste 0 -- -- 91
2020-07-01 04:00:00 20.3 0 Calma 9 Noroeste 0 -- -- 89
2020-07-01 03:00:00 21.1 3 Norte 13 Este 0 -- -- 85
2020-07-01 02:00:00 21.9 8 Nordeste 27 Nordeste 0.8 -- -- 86
2020-07-01 01:00:00 23.2 10 Este 59 Sur 0 -- -- 73
2020-07-01 00:00:00 24.7 23 Este 53 Sudeste 0 -- -- 69
2020-06-30 23:00:00 24.4 9 Sudeste 14 Sudeste 0 -- -- 70
2020-06-30 22:00:00 24.9 9 Este 21 Este 0 -- -- 69
2020-06-30 21:00:00 27.7 14 Sudeste 25 Sudeste 0 -- -- 61
2020-06-30 20:00:00 29.6 15 Sudeste 26 Sur 0 -- -- 56
2020-06-30 19:00:00 31 15 Sudeste 27 Sudeste 0 -- -- 53
2020-06-30 18:00:00 32 14 Sudeste 26 Sudeste 0 -- -- 51
2020-06-30 17:00:00 32.6 8 Sudeste 19 Sudeste 0 -- -- 51
2020-06-30 16:00:00 31.7 9 Sudeste 20 Sudeste 0 -- -- 51
2020-06-30 15:00:00 30.6 13 Sudeste 22 Este 0 -- -- 53
2020-06-30 14:00:00 29.9 12 Sur 23 Sudeste 0 -- -- 52
2020-06-30 13:00:00 28.3 5 Nordeste 18 Este 0 -- -- 61
2020-06-30 12:00:00 26.6 6 Este 18 Sudeste 0 -- -- 65
2020-06-30 11:00:00 24.7 8 Sudeste 15 Sudeste 0 -- -- 72
2020-06-30 10:00:00 23 7 Sudeste 10 Sudeste 0 -- -- 72
2020-06-30 09:00:00 22.7 6 Sur 13 Sudeste 0 -- -- 83
2020-06-30 08:00:00 22.4 6 Este 10 Este 0 -- -- 86
2020-06-30 07:00:00 21.7 6 Este 9 Este 0 -- -- 91
2020-06-30 06:00:00 21.6 3 Este 10 Este 0 -- -- 91
2020-06-30 05:00:00 20.9 3 Nordeste 5 Nordeste 0 -- -- 91
2020-06-30 04:00:00 21 4 Este 9 Sudeste 0 -- -- 89
2020-06-30 03:00:00 21.6 7 Sudeste 14 Este 0 -- -- 88
2020-06-30 02:00:00 22 9 Sudeste 12 Sudeste 0 -- -- 87
2020-06-30 01:00:00 23 3 Sudeste 11 Sudeste 0 -- -- 82
2020-06-30 00:00:00 23.7 9 Sudeste 18 Este 0 -- -- 79
2020-06-29 23:00:00 24.3 10 Este 17 Este 0 -- -- 78
2020-06-29 22:00:00 25.9 9 Sudeste 22 Sudeste 0 -- -- 72
2020-06-29 21:00:00 28.2 11 Sur 27 Sur 0 -- -- 65
2020-06-29 20:00:00 31.3 14 Sur 24 Sudeste 0 -- -- 56
2020-06-29 19:00:00 33 8 Sur 28 Sudeste 0 -- -- 45
2020-06-29 18:00:00 33 3 Nordeste 13 Sudoeste 0 -- -- 46
2020-06-29 17:00:00 32.6 7 Sudoeste 15 Sudoeste 0 -- -- 50
2020-06-29 16:00:00 31.8 7 Sudoeste 14 Sudoeste 0 -- -- 48
2020-06-29 15:00:00 30.6 6 Sur 16 Sur 0 -- -- 51
2020-06-29 14:00:00 29.3 6 Sur 14 Sur 0 -- -- 56
2020-06-29 13:00:00 28.3 5 Sur 16 Este 0 -- -- 59
2020-06-29 12:00:00 27.1 6 Este 17 Sur 0 -- -- 62
2020-06-29 11:00:00 25.6 8 Sudeste 15 Sur 0 -- -- 63
2020-06-29 10:00:00 24.5 6 Sudeste 12 Sudeste 0 -- -- 69
2020-06-29 09:00:00 22.4 5 Sur 12 Sudeste 0 -- -- 77
2020-06-29 08:00:00 21.4 6 Este 14 Este 0 -- -- 89
2020-06-29 07:00:00 19.2 5 Nordeste 6 Nordeste 0 -- -- 93
2020-06-29 06:00:00 18.9 3 Este 6 Este 0 -- -- 91
2020-06-29 05:00:00 19.1 0 Calma 4 Noroeste 0 -- -- 90
2020-06-29 04:00:00 20 0 Calma 7 Sudeste 0 -- -- 88
2020-06-29 03:00:00 20.8 0 Calma 4 Noroeste 0 -- -- 86
2020-06-29 02:00:00 21.1 6 Nordeste 10 Nordeste 0 -- -- 88
2020-06-29 01:00:00 22.4 8 Sudeste 17 Este 0 -- -- 82
2020-06-29 00:00:00 23.3 11 Este 16 Este 0 -- -- 79
2020-06-28 23:00:00 24.4 6 Nordeste 12 Sudeste 0 -- -- 76
2020-06-28 22:00:00 26.4 8 Sudeste 15 Sudeste 0 -- -- 66
2020-06-28 21:00:00 29 9 Sur 24 Sudeste 0 -- -- 58
2020-06-28 20:00:00 31.5 11 Sur 23 Sudeste 0 -- -- 51
2020-06-28 19:00:00 33.8 7 Sur 15 Sur 0 -- -- 45
2020-06-28 18:00:00 33.6 6 Sur 18 Sur 0 -- -- 41
2020-06-28 17:00:00 33.6 3 Sudoeste 16 Sudoeste 0 -- -- 44
2020-06-28 16:00:00 32.7 7 Sudoeste 15 Sur 0 -- -- 45
2020-06-28 15:00:00 31.5 9 Sudoeste 21 Sudoeste 0 -- -- 49
2020-06-28 14:00:00 30.8 7 Sur 17 Sudeste 0 -- -- 50
2020-06-28 13:00:00 29.8 6 Sur 17 Este 0 -- -- 52
2020-06-28 12:00:00 29.3 9 Sudeste 17 Sudeste 0 -- -- 54
2020-06-28 11:00:00 27.7 7 Sudeste 20 Este 0 -- -- 57
2020-06-28 10:00:00 26 12 Este 18 Este 0 -- -- 64
2020-06-28 09:00:00 24.3 10 Sudeste 17 Sudeste 0 -- -- 71
2020-06-28 08:00:00 22 6 Nordeste 11 Nordeste 0 -- -- 83
2020-06-28 07:00:00 20.1 6 Este 15 Este 0 -- -- 87
2020-06-28 06:00:00 19.6 6 Nordeste 14 Este 0 -- -- 88
2020-06-28 05:00:00 19.8 4 Este 14 Este 0 -- -- 87
2020-06-28 04:00:00 20 8 Este 13 Este 0 -- -- 89
2020-06-28 03:00:00 20.2 3 Sudeste 6 Nordeste 0 -- -- 88
2020-06-28 02:00:00 21.1 4 Nordeste 13 Este 0 -- -- 86
2020-06-28 01:00:00 21.8 10 Este 14 Este 0 -- -- 85
2020-06-28 00:00:00 22.1 5 Este 11 Sur 0 -- -- 82
2020-06-27 23:00:00 24.5 3 Sudeste 12 Sudeste 0 -- -- 72
2020-06-27 22:00:00 26 4 Sudeste 10 Sudeste 0 -- -- 63
2020-06-27 21:00:00 31.1 3 Sur 8 Sur 0 -- -- 42
2020-06-27 20:00:00 32.9 4 Sudoeste 13 Sudoeste 0 -- -- 36
2020-06-27 19:00:00 32.8 7 Oeste 17 Oeste 0 -- -- 35
2020-06-27 18:00:00 32.9 6 Oeste 17 Oeste 0 -- -- 35
2020-06-27 17:00:00 32.4 4 Sur 14 Sur 0 -- -- 40
2020-06-27 16:00:00 31.3 7 Oeste 13 Sudoeste 0 -- -- 43
2020-06-27 15:00:00 30.3 8 Sudoeste 20 Sur 0 -- -- 43
2020-06-27 14:00:00 29.7 8 Sur 18 Sur 0 -- -- 47
2020-06-27 13:00:00 28.7 8 Sudoeste 17 Sur 0 -- -- 51
2020-06-27 12:00:00 27.5 8 Sur 15 Sudoeste 0 -- -- 52
2020-06-27 11:00:00 27.5 5 Este 14 Sudeste 0 -- -- 46
2020-06-27 10:00:00 25.6 6 Sudeste 9 Este 0 -- -- 54
2020-06-27 09:00:00 22.9 0 Calma 5 Sudeste 0 -- -- 62
2020-06-27 08:00:00 19.2 2 Oeste 8 Oeste 0 -- -- 78
2020-06-27 07:00:00 16.4 3 Oeste 5 Oeste 0 -- -- 86
2020-06-27 06:00:00 16.7 3 Este 8 Nordeste 0 -- -- 85
2020-06-27 05:00:00 16.6 4 Norte 5 Norte 0 -- -- 87
2020-06-27 04:00:00 17.3 5 Nordeste 8 Este 0 -- -- 84
2020-06-27 03:00:00 18.2 2 Nordeste 15 Nordeste 0 -- -- 81
2020-06-27 02:00:00 18.9 10 Nordeste 14 Este 0 -- -- 79
2020-06-27 01:00:00 20.7 3 Este 12 Nordeste 0 -- -- 72
2020-06-27 00:00:00 21.2 9 Nordeste 16 Nordeste 0 -- -- 69
2020-06-26 23:00:00 22.2 2 Nordeste 14 Noroeste 0 -- -- 68
2020-06-26 22:00:00 23.8 5 Oeste 23 Este 0 -- -- 55
2020-06-26 21:00:00 23.9 11 Este 14 Este 0 -- -- 57
2020-06-26 20:00:00 26.9 7 Sudoeste 23 Sudeste 0 -- -- 41
2020-06-26 19:00:00 28.1 13 Sudeste 25 Sudeste 0 -- -- 37
2020-06-26 18:00:00 29.7 13 Sudeste 28 Sur 0 -- -- 36
2020-06-26 17:00:00 31 19 Sudeste 35 Sudeste 0 -- -- 34
2020-06-26 16:00:00 31.9 16 Sudeste 35 Sudeste 0 -- -- 34
2020-06-26 15:00:00 31.9 21 Sudeste 36 Sudeste 0 -- -- 33
2020-06-26 14:00:00 30.6 12 Sudeste 31 Este 0 -- -- 35
2020-06-26 13:00:00 30.3 14 Sudeste 27 Sudeste 0 -- -- 37
2020-06-26 12:00:00 28.9 14 Sudeste 25 Sudeste 0 -- -- 42
2020-06-26 11:00:00 27.7 14 Este 21 Este 0 -- -- 45
2020-06-26 10:00:00 25.7 13 Nordeste 21 Este 0 -- -- 59
2020-06-26 09:00:00 22.8 12 Este 21 Este 0 -- -- 69
2020-06-26 08:00:00 20.2 9 Nordeste 14 Este 0 -- -- 81
2020-06-26 07:00:00 18.2 2 Nordeste 12 Este 0 -- -- 87
2020-06-26 06:00:00 19.3 5 Nordeste 11 Noroeste 0 -- -- 86
2020-06-26 05:00:00 19.4 5 Nordeste 14 Nordeste 0 -- -- 83
2020-06-26 04:00:00 19.7 12 Nordeste 19 Nordeste 0 -- -- 80
2020-06-26 03:00:00 19.5 12 Nordeste 16 Nordeste 0 -- -- 82
2020-06-26 02:00:00 18.9 6 Noroeste 9 Noroeste 0 -- -- 86
2020-06-26 01:00:00 19.9 5 Noroeste 17 Noroeste 0 -- -- 78
2020-06-26 00:00:00 21 10 Noroeste 19 Nordeste 0 -- -- 74
2020-06-25 23:00:00 20.6 10 Este 33 Sudeste 0 -- -- 79
2020-06-25 22:00:00 20.7 17 Nordeste 35 Norte 1.4 -- -- 79
2020-06-25 21:00:00 25.7 12 Sudeste 27 Sur 0 -- -- 50
2020-06-25 20:00:00 27.6 6 Sudeste 34 Sudeste 0 -- -- 42
2020-06-25 19:00:00 29.6 11 Sur 26 Sur 0 -- -- 38
2020-06-25 18:00:00 32.5 10 Sur 28 Sur 0 -- -- 36
2020-06-25 17:00:00 33.9 13 Sudeste 21 Sudeste 0 -- -- 34
2020-06-25 16:00:00 33.7 9 Sudeste 19 Este 0 -- -- 38
2020-06-25 15:00:00 32.8 10 Este 26 Sudeste 0 -- -- 37
2020-06-25 14:00:00 32.1 6 Sudeste 15 Este 0 -- -- 43
2020-06-25 13:00:00 30.5 7 Sudeste 14 Este 0 -- -- 44
2020-06-25 12:00:00 28.2 5 Sudoeste 12 Sudoeste 0 -- -- 53
2020-06-25 11:00:00 26.6 4 Sur 9 Sur 0 -- -- 56
2020-06-25 10:00:00 24.9 2 Sur 8 Sudoeste 0 -- -- 59
2020-06-25 09:00:00 22.6 0 Calma 9 Sudoeste 0 -- -- 72
2020-06-25 08:00:00 19.2 0 Calma 3 Sur 0 -- -- 89
2020-06-25 07:00:00 17.2 0 Calma 5 Noroeste 0 -- -- 90
2020-06-25 06:00:00 18 2 Noroeste 5 Norte 0 -- -- 88
2020-06-25 05:00:00 18.4 0 Calma 6 Sudeste 0 -- -- 87
2020-06-25 04:00:00 17.9 3 Norte 10 Norte 0 -- -- 87
2020-06-25 03:00:00 18.4 9 Norte 10 Norte 0 -- -- 87
2020-06-25 02:00:00 19.1 5 Norte 11 Norte 0 -- -- 86
2020-06-25 01:00:00 20.4 5 Norte 13 Sudoeste 0 -- -- 82
2020-06-25 00:00:00 21.8 3 Sur 10 Sudeste 0 -- -- 68
2020-06-24 23:00:00 23.1 5 Sur 19 Este 0 -- -- 60
2020-06-24 22:00:00 23.9 14 Este 45 Nordeste 0 -- -- 56
2020-06-24 21:00:00 24.4 31 Nordeste 52 Norte 0 -- -- 55
2020-06-24 20:00:00 27.6 4 Norte 18 Sudeste 0 -- -- 66
2020-06-24 19:00:00 29 12 Sur 27 Sur 0 -- -- 58
2020-06-24 18:00:00 29.6 13 Sur 28 Sudeste 0 -- -- 54
2020-06-24 17:00:00 31.5 14 Sur 27 Sudoeste 0 -- -- 43
2020-06-24 16:00:00 32.5 12 Sur 24 Sur 0 -- -- 44
2020-06-24 15:00:00 31.8 11 Sudeste 22 Sudeste 0 -- -- 43
2020-06-24 14:00:00 31 9 Sudeste 29 Nordeste 0 -- -- 44
2020-06-24 13:00:00 29.6 12 Este 20 Este 0 -- -- 46
2020-06-24 12:00:00 28.3 8 Sudeste 18 Sudeste 0 -- -- 49
2020-06-24 11:00:00 27 12 Este 19 Este 0 -- -- 53
2020-06-24 10:00:00 25.2 9 Este 14 Este 0 -- -- 56
2020-06-24 09:00:00 22.9 0 Calma 6 Sudoeste 0 -- -- 66
2020-06-24 08:00:00 20.1 0 Calma 6 Nordeste 0 -- -- 77
2020-06-24 07:00:00 18 2 Este 15 Nordeste 0 -- -- 86
2020-06-24 06:00:00 16.7 3 Norte 10 Nordeste 0 -- -- 88
2020-06-24 05:00:00 17.5 5 Sudeste 10 Nordeste 0 -- -- 85
2020-06-24 04:00:00 17.7 4 Oeste 12 Nordeste 0 -- -- 85
2020-06-24 03:00:00 18.5 5 Norte 10 Nordeste 0 -- -- 82
2020-06-24 02:00:00 19.1 7 Nordeste 12 Nordeste 0 -- -- 81
2020-06-24 01:00:00 20.2 3 Sudeste 9 Este 0 -- -- 80
2020-06-24 00:00:00 21 8 Nordeste 13 Nordeste 0 -- -- 78
2020-06-23 23:00:00 22.1 6 Este 15 Sudeste 0 -- -- 71
2020-06-23 22:00:00 23.9 8 Sudeste 21 Sudeste 0 -- -- 60
2020-06-23 21:00:00 26.4 12 Sudeste 24 Sudeste 0 -- -- 54
2020-06-23 20:00:00 29.4 13 Sudeste 23 Sudeste 0 -- -- 50
2020-06-23 19:00:00 31.4 11 Sur 26 Sur 0 -- -- 47
2020-06-23 18:00:00 32.2 11 Sur 24 Sur 0 -- -- 43
2020-06-23 17:00:00 32 13 Sur 26 Sur 0 -- -- 42
2020-06-23 16:00:00 31.9 11 Sur 19 Sur 0 -- -- 41
2020-06-23 15:00:00 31.4 9 Sur 24 Sur 0 -- -- 40
2020-06-23 14:00:00 30.5 9 Sudeste 17 Sudeste 0 -- -- 41
2020-06-23 13:00:00 29.3 7 Sudeste 17 Sudeste 0 -- -- 47
2020-06-23 12:00:00 28.2 8 Este 17 Este 0 -- -- 53
2020-06-23 11:00:00 26.5 10 Este 22 Sudeste 0 -- -- 54
2020-06-23 10:00:00 25 11 Este 17 Sudeste 0 -- -- 60
2020-06-23 09:00:00 22.9 10 Sudeste 14 Sudeste 0 -- -- 69
2020-06-23 08:00:00 19.4 2 Norte 6 Norte 0 -- -- 89
2020-06-23 07:00:00 16.7 2 Noroeste 5 Oeste 0 -- -- 92
2020-06-23 06:00:00 17.3 2 Noroeste 7 Este 0 -- -- 86
2020-06-23 05:00:00 18.4 4 Sudeste 12 Este 0 -- -- 85
2020-06-23 04:00:00 19.3 9 Este 20 Este 0 -- -- 82
2020-06-23 03:00:00 20 11 Este 19 Este 0 -- -- 79
2020-06-23 02:00:00 20 10 Este 17 Este 0 -- -- 78
2020-06-23 01:00:00 20.2 10 Este 15 Este 0 -- -- 78
2020-06-23 00:00:00 21.3 9 Este 18 Este 0 -- -- 76
2020-06-22 23:00:00 22.5 6 Este 10 Sudeste 0 -- -- 76
2020-06-22 22:00:00 24.2 8 Sudeste 10 Sudeste 0 -- -- 64
2020-06-22 21:00:00 28.6 7 Este 9 Sudeste 0 -- -- 46
2020-06-22 20:00:00 31.2 5 Sudeste 9 Este 0 -- -- 36
2020-06-22 19:00:00 31.9 3 Sur 21 Sudeste 0 -- -- 32
2020-06-22 18:00:00 31.2 8 Sur 14 Sur 0 -- -- 33
2020-06-22 17:00:00 30.9 7 Sur 15 Sur 0 -- -- 37
2020-06-22 16:00:00 29.9 5 Oeste 16 Sur 0 -- -- 42
2020-06-22 15:00:00 29.3 4 Sudoeste 15 Sur 0 -- -- 42
2020-06-22 14:00:00 28.1 8 Sudoeste 15 Sudoeste 0 -- -- 45
2020-06-22 13:00:00 27.1 6 Sudoeste 15 Sudeste 0 -- -- 49
2020-06-22 12:00:00 25.2 7 Sur 13 Sudeste 0 -- -- 52
2020-06-22 11:00:00 23.5 5 Sur 14 Sudoeste 0 -- -- 56
2020-06-22 10:00:00 21.8 5 Sudoeste 10 Noroeste 0 -- -- 61
2020-06-22 09:00:00 19.9 4 Oeste 8 Sudoeste 0 -- -- 70
2020-06-22 08:00:00 18.4 2 Nordeste 8 Norte 0 -- -- 79
2020-06-22 07:00:00 14.9 4 Norte 9 Oeste 0 -- -- 90
2020-06-22 06:00:00 15 2 Sudoeste 8 Este 0 -- -- 88
2020-06-22 05:00:00 15.4 3 Norte 9 Noroeste 0 -- -- 87
2020-06-22 04:00:00 15.9 4 Este 8 Este 0 -- -- 85
2020-06-22 03:00:00 16.7 4 Noroeste 10 Oeste 0 -- -- 80
2020-06-22 02:00:00 18.5 4 Oeste 9 Oeste 0 -- -- 70
2020-06-22 01:00:00 18.2 9 Nordeste 15 Nordeste 0 -- -- 72
2020-06-22 00:00:00 21 3 Oeste 12 Noroeste 0 -- -- 55
2020-06-21 23:00:00 22.1 6 Oeste 12 Oeste 0 -- -- 50
2020-06-21 22:00:00 25 7 Oeste 17 Oeste 0 -- -- 41
2020-06-21 21:00:00 29.7 7 Oeste 23 Sudoeste 0 -- -- 35
2020-06-21 20:00:00 32 15 Oeste 31 Oeste 0 -- -- 28
2020-06-21 19:00:00 32.9 19 Oeste 35 Sudoeste 0 -- -- 28
2020-06-21 18:00:00 33 17 Oeste 32 Sudoeste 0 -- -- 28
2020-06-21 17:00:00 32.9 13 Oeste 27 Oeste 0 -- -- 29
2020-06-21 16:00:00 32 16 Oeste 28 Sudoeste 0 -- -- 33
2020-06-21 15:00:00 30.9 17 Oeste 30 Oeste 0 -- -- 36
2020-06-21 14:00:00 29.1 10 Sudoeste 20 Sur 0 -- -- 42
2020-06-21 13:00:00 26.6 7 Sur 17 Sur 0 -- -- 64
2020-06-21 12:00:00 24.9 6 Sur 18 Sur 0 -- -- 71
2020-06-21 11:00:00 23.6 8 Sur 15 Sudoeste 0 -- -- 75
2020-06-21 10:00:00 22.1 4 Sudoeste 9 Sudoeste 0 -- -- 80
2020-06-21 09:00:00 20.2 0 Calma 4 Sudoeste 0 -- -- 84
2020-06-21 08:00:00 17.4 0 Calma 4 Este 0 -- -- 95
2020-06-21 07:00:00 15.7 2 Oeste 6 Noroeste 0 -- -- 95
2020-06-21 06:00:00 15.6 2 Noroeste 6 Noroeste 0 -- -- 93
2020-06-21 05:00:00 16.3 3 Noroeste 6 Noroeste 0 -- -- 92
2020-06-21 04:00:00 16.8 4 Norte 8 Norte 0 -- -- 91
2020-06-21 03:00:00 18.3 3 Nordeste 7 Nordeste 0 -- -- 87
2020-06-21 02:00:00 19.4 4 Este 10 Este 0 -- -- 84
2020-06-21 01:00:00 20.1 6 Este 19 Este 0 -- -- 84
2020-06-21 00:00:00 21.1 11 Este 15 Este 0 -- -- 84
2020-06-20 23:00:00 23.2 3 Sudeste 15 Sudeste 0 -- -- 76
2020-06-20 22:00:00 24.6 8 Sudeste 17 Sudeste 0 -- -- 70
2020-06-20 21:00:00 29 6 Sudoeste 15 Sudoeste 0 -- -- 49
2020-06-20 20:00:00 30.6 8 Sudoeste 23 Sudoeste 0 -- -- 44
2020-06-20 19:00:00 30.7 9 Sudoeste 24 Sudoeste 0 -- -- 44
2020-06-20 18:00:00 30.3 10 Sudoeste 21 Sudoeste 0 -- -- 46
2020-06-20 17:00:00 29.7 9 Sudoeste 22 Sur 0 -- -- 47
2020-06-20 16:00:00 28.7 11 Sudoeste 20 Sur 0 -- -- 51
2020-06-20 15:00:00 27.6 8 Sur 20 Sudoeste 0 -- -- 58
2020-06-20 14:00:00 26.4 8 Sur 16 Sur 0 -- -- 61
2020-06-20 13:00:00 25.4 6 Sur 16 Sudoeste 0 -- -- 61
2020-06-20 12:00:00 24.3 5 Sudoeste 15 Sur 0 -- -- 67
2020-06-20 11:00:00 23.2 8 Sur 13 Sudoeste 0 -- -- 71
2020-06-20 10:00:00 22.4 3 Este 7 Noroeste 0 -- -- 71
2020-06-20 09:00:00 19.7 3 Sudoeste 6 Sudoeste 0 -- -- 83
2020-06-20 08:00:00 17 0 Calma 4 Noroeste 0 -- -- 95
2020-06-20 07:00:00 14.8 2 Oeste 6 Noroeste 0 -- -- 96
2020-06-20 06:00:00 14.7 6 Noroeste 8 Noroeste 0 -- -- 95
2020-06-20 05:00:00 15.2 0 Calma 4 Noroeste 0 -- -- 94
2020-06-20 04:00:00 15.5 3 Noroeste 9 Nordeste 0 -- -- 93
2020-06-20 03:00:00 16.5 4 Este 8 Este 0 -- -- 92
2020-06-20 02:00:00 17 7 Este 10 Este 0 -- -- 92
2020-06-20 01:00:00 17.3 4 Este 8 Nordeste 0 -- -- 90
2020-06-20 00:00:00 18 6 Este 10 Este 0 -- -- 89
2020-06-19 23:00:00 19 6 Este 10 Este 0 -- -- 85
2020-06-19 22:00:00 20.5 6 Sudeste 17 Sur 0 -- -- 78
2020-06-19 21:00:00 22.7 10 Sudeste 21 Sudeste 0 -- -- 69
2020-06-19 20:00:00 25.2 12 Sur 23 Sudeste 0 -- -- 60
2020-06-19 19:00:00 26.9 9 Sur 19 Sudeste 0 -- -- 56
2020-06-19 18:00:00 27.3 8 Sur 16 Sur 0 -- -- 52
2020-06-19 17:00:00 26.8 9 Sudoeste 18 Sudoeste 0 -- -- 50
2020-06-19 16:00:00 26.3 8 Sur 18 Sudoeste 0 -- -- 54
2020-06-19 15:00:00 25.3 6 Sur 17 Sur 0 -- -- 56
2020-06-19 14:00:00 24.8 10 Sudeste 22 Sudeste 0 -- -- 56
2020-06-19 13:00:00 23.6 9 Sudeste 18 Este 0 -- -- 60
2020-06-19 12:00:00 22.5 7 Este 15 Este 0 -- -- 62
2020-06-19 11:00:00 22.3 8 Este 21 Este 0 -- -- 64
2020-06-19 10:00:00 20.3 14 Este 23 Este 0 -- -- 71
2020-06-19 09:00:00 18.3 10 Nordeste 20 Nordeste 0 -- -- 79
2020-06-19 08:00:00 17.2 10 Nordeste 17 Este 0 -- -- 85
2020-06-19 07:00:00 16.6 10 Este 18 Este 0 -- -- 88
2020-06-19 06:00:00 16.5 8 Este 16 Este 0 -- -- 91
2020-06-19 05:00:00 16 9 Este 17 Este 0 -- -- 93
2020-06-19 04:00:00 16.3 10 Este 17 Este 0 -- -- 93
2020-06-19 03:00:00 15.5 6 Este 9 Este 0 -- -- 91
2020-06-19 02:00:00 16.1 2 Nordeste 8 Nordeste 0 -- -- 88
2020-06-19 01:00:00 16.9 5 Este 10 Este 0 -- -- 83
2020-06-19 00:00:00 18.1 5 Nordeste 9 Sudeste 0 -- -- 84
2020-06-18 23:00:00 18.7 6 Sudeste 10 Sur 0 -- -- 79
2020-06-18 22:00:00 20.7 4 Sudeste 13 Sur 0 -- -- 73
2020-06-18 21:00:00 24 4 Sur 13 Sur 0 -- -- 57
2020-06-18 20:00:00 25 8 Sur 13 Sudoeste 0 -- -- 48
2020-06-18 19:00:00 25 7 Sur 19 Sur 0 -- -- 50
2020-06-18 18:00:00 25 9 Sudoeste 19 Sudeste 0 -- -- 50
2020-06-18 17:00:00 24.8 6 Oeste 15 Sudoeste 0 -- -- 50
2020-06-18 16:00:00 24.1 8 Sudoeste 18 Sudoeste 0 -- -- 51
2020-06-18 15:00:00 23 9 Sur 18 Oeste 0 -- -- 55
2020-06-18 14:00:00 21.8 8 Sudoeste 17 Oeste 0 -- -- 58
2020-06-18 13:00:00 20.3 6 Oeste 16 Oeste 0 -- -- 66
2020-06-18 12:00:00 19.1 7 Noroeste 14 Oeste 0 -- -- 74
2020-06-18 11:00:00 17.9 5 Oeste 10 Oeste 0 -- -- 76
2020-06-18 10:00:00 17.1 2 Oeste 14 Este 0 -- -- 81
2020-06-18 09:00:00 14.6 9 Este 14 Este 0.2 -- -- 97
2020-06-18 08:00:00 14.2 7 Nordeste 19 Oeste 2.6 -- -- 95
2020-06-18 07:00:00 14.4 11 Sudoeste 17 Sudoeste 0.8 -- -- 94
2020-06-18 06:00:00 14.2 13 Nordeste 19 Nordeste 2 -- -- 92
2020-06-18 05:00:00 14.8 7 Norte 20 Noroeste 4.2 -- -- 92
2020-06-18 04:00:00 16.6 5 Sur 15 Este 0 -- -- 90
2020-06-18 03:00:00 16.7 9 Nordeste 14 Nordeste 0.2 -- -- 89
2020-06-18 02:00:00 16.9 3 Oeste 8 Sudeste 0 -- -- 87
2020-06-18 01:00:00 17.1 0 Calma 7 Nordeste 0 -- -- 84
2020-06-18 00:00:00 16.8 3 Sudeste 12 Este 0 -- -- 77
2020-06-17 23:00:00 16.4 2 Oeste 11 Sudoeste 0 -- -- 72
2020-06-17 22:00:00 19.8 7 Sudoeste 14 Sudoeste 0 -- -- 57
2020-06-17 21:00:00 23 6 Sudoeste 21 Sudoeste 0 -- -- 45
2020-06-17 20:00:00 24.6 10 Sudoeste 30 Oeste 0 -- -- 37
2020-06-17 19:00:00 24.9 15 Sudoeste 28 Sudoeste 0 -- -- 36
2020-06-17 18:00:00 25.3 12 Oeste 30 Sudoeste 0 -- -- 37
2020-06-17 17:00:00 24.9 20 Oeste 34 Oeste 0 -- -- 36
2020-06-17 16:00:00 24.5 15 Oeste 27 Sudoeste 0 -- -- 38
2020-06-17 15:00:00 24.1 16 Oeste 30 Oeste 0 -- -- 40
2020-06-17 14:00:00 22.6 6 Sudoeste 22 Noroeste 0 -- -- 51
2020-06-17 13:00:00 20.9 8 Sudoeste 18 Oeste 0 -- -- 59
2020-06-17 12:00:00 19 6 Oeste 15 Sudoeste 0 -- -- 71
2020-06-17 11:00:00 17.4 5 Oeste 9 Noroeste 0 -- -- 76
2020-06-17 10:00:00 15.7 3 Oeste 9 Sudoeste 0 -- -- 84
2020-06-17 09:00:00 14.2 3 Sudoeste 10 Sudoeste 0 -- -- 88
2020-06-17 08:00:00 13.3 3 Nordeste 5 Sudeste 0 -- -- 94
2020-06-17 07:00:00 12.3 2 Noroeste 8 Sudoeste 0 -- -- 96
2020-06-17 06:00:00 12.6 6 Oeste 12 Sudoeste 0 -- -- 95
2020-06-17 05:00:00 13.7 6 Sudoeste 15 Sudoeste 0 -- -- 95
2020-06-17 04:00:00 14 5 Sur 13 Sudoeste 0 -- -- 96
2020-06-17 03:00:00 14.1 6 Sur 10 Sur 0 -- -- 97
2020-06-17 02:00:00 14.2 4 Sudoeste 8 Sudoeste 0 -- -- 96
2020-06-17 01:00:00 14.4 3 Oeste 4 Oeste 0 -- -- 95
2020-06-17 00:00:00 15 4 Sudoeste 11 Norte 0 -- -- 95
2020-06-16 23:00:00 14.7 4 Noroeste 13 Oeste 0 -- -- 93
2020-06-16 22:00:00 15.1 6 Oeste 11 Oeste 0 -- -- 93
2020-06-16 21:00:00 16.1 7 Sudoeste 11 Sudoeste 0 -- -- 91
2020-06-16 20:00:00 15 6 Este 31 Norte 15.8 -- -- 90
2020-06-16 19:00:00 19.1 16 Norte 54 Norte 0 -- -- 71
2020-06-16 18:00:00 22.5 9 Sur 20 Sur 0 -- -- 66
2020-06-16 17:00:00 21.8 10 Sur 19 Sur 0 -- -- 67
2020-06-16 16:00:00 20.6 8 Sur 18 Sudoeste 0 -- -- 72
2020-06-16 15:00:00 19.2 9 Sudoeste 17 Sur 0 -- -- 83
2020-06-16 14:00:00 17.8 11 Sur 16 Sur 0 -- -- 90
2020-06-16 13:00:00 17.6 5 Sudoeste 9 Sudoeste 1.2 -- -- 93
2020-06-16 12:00:00 17.2 6 Oeste 12 Sudoeste 0.8 -- -- 89
2020-06-16 11:00:00 17.6 4 Sudoeste 9 Sudoeste 0 -- -- 88
2020-06-16 10:00:00 16.8 2 Sudeste 6 Noroeste 0.6 -- -- 90
2020-06-16 09:00:00 16.4 3 Oeste 8 Noroeste 0.6 -- -- 93
2020-06-16 08:00:00 15.9 5 Noroeste 13 Norte 0.4 -- -- 92
2020-06-16 07:00:00 16.5 4 Noroeste 12 Sudoeste 0 -- -- 91
2020-06-16 06:00:00 17.2 0 Calma 8 Sudoeste 0.6 -- -- 93
2020-06-16 05:00:00 17.4 2 Sudoeste 10 Este 0.2 -- -- 91
2020-06-16 04:00:00 17.7 6 Este 9 Este 0.2 -- -- 90
2020-06-16 03:00:00 18.2 4 Noroeste 15 Sudeste 0.2 -- -- 85
2020-06-16 02:00:00 18.9 0 Calma 17 Sur 0 -- -- 82
2020-06-16 01:00:00 19.4 5 Sur 15 Sur 0 -- -- 73
2020-06-16 00:00:00 20.1 6 Norte 15 Oeste 0 -- -- 72
2020-06-15 23:00:00 20.7 5 Noroeste 10 Noroeste 0 -- -- 63
2020-06-15 22:00:00 22.6 6 Oeste 10 Oeste 0 -- -- 53
2020-06-15 21:00:00 24.4 4 Oeste 22 Noroeste 0 -- -- 45
2020-06-15 20:00:00 27.4 10 Noroeste 28 Oeste 0 -- -- 36
2020-06-15 19:00:00 28 14 Oeste 30 Sudoeste 0 -- -- 34
2020-06-15 18:00:00 28.3 15 Oeste 32 Sudoeste 0 -- -- 34
2020-06-15 17:00:00 28 13 Sudoeste 30 Sudoeste 0 -- -- 35
2020-06-15 16:00:00 27 15 Sudoeste 34 Sudoeste 0 -- -- 37
2020-06-15 15:00:00 27 17 Sudoeste 32 Oeste 0 -- -- 37
2020-06-15 14:00:00 26.4 9 Sudoeste 24 Oeste 0 -- -- 36
2020-06-15 13:00:00 25.1 11 Oeste 26 Sudoeste 0 -- -- 41
2020-06-15 12:00:00 24.1 7 Sudoeste 19 Sudoeste 0 -- -- 50
2020-06-15 11:00:00 21.3 9 Sur 21 Sur 0 -- -- 57
2020-06-15 10:00:00 20.6 10 Sur 19 Sudoeste 0 -- -- 60
2020-06-15 09:00:00 19.5 12 Sudoeste 22 Sudoeste 0 -- -- 60
2020-06-15 08:00:00 17.5 9 Sudoeste 15 Oeste 0 -- -- 69
2020-06-15 07:00:00 15.6 4 Este 9 Sudeste 0 -- -- 88
2020-06-15 06:00:00 16.6 2 Sur 5 Sur 0 -- -- 84
2020-06-15 05:00:00 17.8 3 Sur 6 Sudeste 0 -- -- 80
2020-06-15 04:00:00 18.2 0 Calma 4 Este 0 -- -- 83
2020-06-15 03:00:00 18.5 4 Este 6 Este 0 -- -- 77
2020-06-15 02:00:00 19.4 4 Oeste 8 Sudoeste 0 -- -- 71
2020-06-15 01:00:00 20.4 5 Sudoeste 9 Sudoeste 0 -- -- 66
2020-06-15 00:00:00 20.5 3 Oeste 6 Noroeste 0 -- -- 64
2020-06-14 23:00:00 21.2 4 Noroeste 11 Noroeste 0 -- -- 59
2020-06-14 22:00:00 22.4 5 Noroeste 12 Oeste 0 -- -- 49
2020-06-14 21:00:00 24.1 0 Calma 8 Noroeste 0 -- -- 55
2020-06-14 20:00:00 25.3 5 Noroeste 17 Oeste 0 -- -- 41
2020-06-14 19:00:00 27.4 10 Oeste 26 Oeste 0 -- -- 35
2020-06-14 18:00:00 27.9 10 Oeste 24 Oeste 0 -- -- 34
2020-06-14 17:00:00 27.7 11 Oeste 25 Sur 0 -- -- 34
2020-06-14 16:00:00 27 10 Sudoeste 20 Sudoeste 0 -- -- 35
2020-06-14 15:00:00 26.6 12 Sudoeste 25 Sur 0 -- -- 38
2020-06-14 14:00:00 26 8 Oeste 17 Sudoeste 0 -- -- 38
2020-06-14 13:00:00 25.3 6 Nordeste 12 Sudoeste 0 -- -- 41
2020-06-14 12:00:00 23.5 4 Sudoeste 13 Sur 0 -- -- 52
2020-06-14 11:00:00 21.5 5 Sudoeste 11 Sur 0 -- -- 55
2020-06-14 10:00:00 20 3 Sur 8 Sur 0 -- -- 59
2020-06-14 09:00:00 17.8 2 Norte 7 Oeste 0 -- -- 67
2020-06-14 08:00:00 14 0 Calma 4 Noroeste 0 -- -- 88
2020-06-14 07:00:00 12 0 Calma 4 Noroeste 0 -- -- 92
2020-06-14 06:00:00 11.8 0 Calma 4 Nordeste 0 -- -- 91
2020-06-14 05:00:00 11.7 2 Sudoeste 5 Nordeste 0 -- -- 91
2020-06-14 04:00:00 12 2 Norte 7 Norte 0 -- -- 91
2020-06-14 03:00:00 12.2 4 Norte 6 Nordeste 0 -- -- 91
2020-06-14 02:00:00 12.9 0 Calma 7 Norte 0 -- -- 88
2020-06-14 01:00:00 13.5 0 Calma 5 Norte 0 -- -- 86
2020-06-14 00:00:00 14.7 2 Norte 9 Sudoeste 0 -- -- 76
2020-06-13 23:00:00 16.8 5 Sudoeste 9 Oeste 0 -- -- 64
2020-06-13 22:00:00 18.6 2 Oeste 12 Oeste 0 -- -- 57
2020-06-13 21:00:00 22.1 6 Oeste 24 Oeste 0 -- -- 41
2020-06-13 20:00:00 23.9 13 Oeste 33 Sudoeste 0 -- -- 38
2020-06-13 19:00:00 24.3 18 Oeste 33 Sudoeste 0 -- -- 33
2020-06-13 18:00:00 24.5 22 Oeste 36 Sudoeste 0 -- -- 34
2020-06-13 17:00:00 24.9 19 Oeste 36 Oeste 0 -- -- 36
2020-06-13 16:00:00 24.4 19 Oeste 33 Oeste 0 -- -- 36
2020-06-13 15:00:00 24 14 Oeste 30 Oeste 0 -- -- 40
2020-06-13 14:00:00 23.2 17 Oeste 34 Oeste 0 -- -- 39
2020-06-13 13:00:00 22.5 17 Sudoeste 32 Sudoeste 0 -- -- 46
2020-06-13 12:00:00 21.2 17 Oeste 31 Sudoeste 0 -- -- 53
2020-06-13 11:00:00 20 12 Oeste 24 Oeste 0 -- -- 56
2020-06-13 10:00:00 18.3 13 Oeste 23 Oeste 0 -- -- 65
2020-06-13 09:00:00 16.6 6 Oeste 14 Oeste 0 -- -- 74
2020-06-13 08:00:00 14 0 Calma 6 Norte 0 -- -- 89
2020-06-13 07:00:00 11.3 3 Noroeste 9 Noroeste 0 -- -- 94
2020-06-13 06:00:00 11.3 3 Sudeste 6 Sudeste 0 -- -- 92
2020-06-13 05:00:00 12.5 4 Noroeste 15 Oeste 0 -- -- 90
2020-06-13 04:00:00 13 5 Norte 10 Norte 0 -- -- 89
2020-06-13 03:00:00 13.7 6 Noroeste 13 Norte 0 -- -- 86
2020-06-13 02:00:00 14.8 3 Noroeste 14 Sudeste 0.4 -- -- 82
2020-06-13 01:00:00 15.8 13 Noroeste 32 Sudoeste 0.8 -- -- 78
2020-06-13 00:00:00 16.6 9 Oeste 24 Oeste 0 -- -- 73
2020-06-12 23:00:00 16.8 6 Norte 9 Este 0 -- -- 78
2020-06-12 22:00:00 18.5 0 Calma 8 Este 0 -- -- 68
2020-06-12 21:00:00 21 4 Norte 6 Norte 0 -- -- 66
2020-06-12 20:00:00 23.6 3 Oeste 9 Sudeste 0 -- -- 35
2020-06-12 19:00:00 23.5 5 Noroeste 17 Norte 0 -- -- 36
2020-06-12 18:00:00 23 5 Oeste 14 Oeste 0 -- -- 39
2020-06-12 17:00:00 22.6 9 Noroeste 18 Noroeste 0 -- -- 38
2020-06-12 16:00:00 23 10 Oeste 30 Oeste 0 -- -- 38
2020-06-12 15:00:00 22.2 15 Oeste 31 Oeste 0 -- -- 42
2020-06-12 14:00:00 21.3 12 Oeste 28 Oeste 0 -- -- 44
2020-06-12 13:00:00 20.8 14 Oeste 28 Oeste 0 -- -- 46
2020-06-12 12:00:00 20 15 Oeste 32 Sudoeste 0 -- -- 47
2020-06-12 11:00:00 19.1 12 Oeste 26 Oeste 0 -- -- 54
2020-06-12 10:00:00 17.5 13 Noroeste 22 Oeste 0 -- -- 69
2020-06-12 09:00:00 16.4 8 Oeste 14 Oeste 0 -- -- 86
2020-06-12 08:00:00 14.6 6 Noroeste 15 Noroeste 0 -- -- 94
2020-06-12 07:00:00 14.1 5 Oeste 18 Oeste 0 -- -- 96
2020-06-12 06:00:00 13.8 8 Oeste 17 Sudoeste 0 -- -- 96
2020-06-12 05:00:00 14.3 4 Noroeste 10 Sudoeste 0 -- -- 94
2020-06-12 04:00:00 15 6 Oeste 12 Oeste 0 -- -- 93
2020-06-12 03:00:00 15.4 8 Nordeste 17 Norte 0 -- -- 93
2020-06-12 02:00:00 16.3 3 Noroeste 27 Oeste 7 -- -- 92
2020-06-12 01:00:00 16.8 13 Este 23 Este 6.8 -- -- 93
2020-06-12 00:00:00 17 13 Este 24 Nordeste 0 -- -- 90
2020-06-11 23:00:00 17.7 8 Nordeste 54 Sur 11.6 -- -- 88
2020-06-11 22:00:00 19.2 13 Este 29 Este 0 -- -- 81
2020-06-11 21:00:00 19.8 15 Este 30 Este 0 -- -- 81
2020-06-11 20:00:00 21.4 19 Este 31 Nordeste 0 -- -- 75
2020-06-11 19:00:00 20.2 10 Nordeste 22 Nordeste 0.2 -- -- 79
2020-06-11 18:00:00 21.6 14 Nordeste 24 Nordeste 0 -- -- 73
2020-06-11 17:00:00 24.3 8 Nordeste 19 Este 0 -- -- 51
2020-06-11 16:00:00 25.1 3 Sur 19 Sudeste 0 -- -- 45
2020-06-11 15:00:00 25.9 8 Este 17 Nordeste 0 -- -- 45
2020-06-11 14:00:00 24.1 9 Sudeste 18 Sudeste 0 -- -- 52
2020-06-11 13:00:00 23.7 9 Sudeste 25 Sudeste 0 -- -- 53
2020-06-11 12:00:00 22.4 11 Sudeste 33 Este 0 -- -- 55
2020-06-11 11:00:00 21.3 17 Este 29 Este 0 -- -- 55
2020-06-11 10:00:00 18.5 15 Este 27 Este 0 -- -- 66
2020-06-11 09:00:00 16.3 8 Nordeste 13 Este 0 -- -- 76
2020-06-11 08:00:00 15.2 5 Este 12 Este 0 -- -- 82
2020-06-11 07:00:00 14.9 9 Nordeste 20 Nordeste 0 -- -- 84
2020-06-11 06:00:00 14.6 8 Este 12 Este 0 -- -- 86
2020-06-11 05:00:00 15.2 3 Nordeste 6 Sudeste 0 -- -- 85
2020-06-11 04:00:00 15.4 3 Nordeste 6 Norte 0 -- -- 81
2020-06-11 03:00:00 15.5 4 Norte 10 Sudeste 0 -- -- 79
2020-06-11 02:00:00 16.2 5 Sudeste 9 Sudoeste 0 -- -- 71
2020-06-11 01:00:00 16.9 0 Calma 7 Sudeste 0 -- -- 73
2020-06-11 00:00:00 17.5 4 Sur 10 Norte 0 -- -- 64
2020-06-10 23:00:00 18.5 7 Norte 18 Oeste 0 -- -- 60
2020-06-10 22:00:00 19.5 7 Noroeste 17 Oeste 0 -- -- 49
2020-06-10 21:00:00 20.5 6 Oeste 18 Oeste 0 -- -- 47
2020-06-10 20:00:00 21.6 10 Oeste 30 Oeste 0 -- -- 44
2020-06-10 19:00:00 23.3 9 Oeste 18 Oeste 0 -- -- 38
2020-06-10 18:00:00 23.9 8 Oeste 22 Oeste 0 -- -- 34
2020-06-10 17:00:00 24.6 10 Sudoeste 24 Sudoeste 0 -- -- 33
2020-06-10 16:00:00 24.1 8 Sudoeste 23 Sudoeste 0 -- -- 40
2020-06-10 15:00:00 23.5 5 Sur 21 Sudoeste 0 -- -- 41
2020-06-10 14:00:00 22.4 9 Sudoeste 24 Sudoeste 0 -- -- 46
2020-06-10 13:00:00 21.2 4 Sur 21 Sur 0 -- -- 54
2020-06-10 12:00:00 19.7 8 Sur 19 Sur 0 -- -- 61
2020-06-10 11:00:00 17.5 6 Sudoeste 13 Sur 0 -- -- 66
2020-06-10 10:00:00 16.8 3 Nordeste 14 Este 0 -- -- 68
2020-06-10 09:00:00 14.7 5 Sudeste 9 Este 0 -- -- 76
2020-06-10 08:00:00 12.6 4 Este 11 Este 0 -- -- 85
2020-06-10 07:00:00 10.2 4 Nordeste 9 Nordeste 0 -- -- 95
2020-06-10 06:00:00 9 5 Nordeste 7 Nordeste 0 -- -- 92
2020-06-10 05:00:00 9.8 3 Nordeste 6 Nordeste 0 -- -- 90
2020-06-10 04:00:00 10.2 5 Nordeste 8 Nordeste 0 -- -- 89
2020-06-10 03:00:00 10.8 4 Nordeste 7 Sur 0 -- -- 86
2020-06-10 02:00:00 12.5 4 Sur 12 Este 0 -- -- 77
2020-06-10 01:00:00 14.1 6 Este 12 Sudoeste 0 -- -- 71
2020-06-10 00:00:00 16.3 8 Sudoeste 13 Sudoeste 0 -- -- 60
2020-06-09 23:00:00 17.1 4 Sur 19 Sudoeste 0 -- -- 61
2020-06-09 22:00:00 18.7 11 Oeste 21 Oeste 0 -- -- 52
2020-06-09 21:00:00 20.2 15 Oeste 33 Oeste 0 -- -- 46
2020-06-09 20:00:00 21.3 16 Oeste 40 Oeste 0 -- -- 43
2020-06-09 19:00:00 23.5 25 Oeste 40 Oeste 0 -- -- 38
2020-06-09 18:00:00 24.4 15 Sudoeste 40 Sudoeste 0 -- -- 34
2020-06-09 17:00:00 25.1 16 Oeste 30 Sudoeste 0 -- -- 33
2020-06-09 16:00:00 24 11 Sudoeste 24 Sudoeste 0 -- -- 34
2020-06-09 15:00:00 23.5 8 Oeste 22 Sudoeste 0 -- -- 37
2020-06-09 14:00:00 22.4 6 Oeste 24 Oeste 0 -- -- 43
2020-06-09 13:00:00 21.1 9 Sudoeste 19 Sudoeste 0 -- -- 49
2020-06-09 12:00:00 19.8 7 Sudeste 15 Oeste 0 -- -- 53
2020-06-09 11:00:00 17.8 6 Sudoeste 18 Sudoeste 0 -- -- 59
2020-06-09 10:00:00 15.9 4 Noroeste 9 Sudoeste 0 -- -- 67
2020-06-09 09:00:00 15 2 Este 8 Este 0 -- -- 74
2020-06-09 08:00:00 12.1 5 Este 8 Nordeste 0 -- -- 90
2020-06-09 07:00:00 9 2 Nordeste 4 Este 0 -- -- 93
2020-06-09 06:00:00 9.2 3 Este 8 Sur 0 -- -- 90
2020-06-09 05:00:00 10.1 5 Sur 8 Sur 0 -- -- 89
2020-06-09 04:00:00 10.7 0 Calma 8 Norte 0 -- -- 85
2020-06-09 03:00:00 11.9 3 Noroeste 13 Oeste 0 -- -- 84
2020-06-09 02:00:00 13.1 8 Noroeste 10 Nordeste 0 -- -- 85
2020-06-09 01:00:00 14 6 Nordeste 11 Este 0 -- -- 82
2020-06-09 00:00:00 15.4 5 Nordeste 15 Oeste 0 -- -- 68